createdAt,value
2022-08-03T00:00:31.142Z,100385.80
2022-08-03T00:03:04.162Z,100388.99
2022-08-03T00:05:35.248Z,100394.46
2022-08-03T00:08:03.285Z,100400.77
2022-08-03T00:10:32.827Z,100396.73
2022-08-03T00:13:00.469Z,100399.76
2022-08-03T00:15:28.103Z,100399.23
2022-08-03T00:17:55.713Z,100405.20
2022-08-03T00:20:23.832Z,100402.98
2022-08-03T00:22:51.740Z,100403.02
2022-08-03T00:25:19.769Z,100404.01
2022-08-03T00:27:48.364Z,100401.05
2022-08-03T00:30:18.104Z,100405.75
2022-08-03T00:32:45.705Z,100405.85
2022-08-03T00:35:26.614Z,100404.21
2022-08-03T00:38:01.444Z,100406.91
2022-08-03T00:40:29.295Z,100410.55
2022-08-03T00:42:57.858Z,100407.49
2022-08-03T00:45:29.024Z,100407.60
2022-08-03T00:47:57.521Z,100409.20
2022-08-03T00:50:27.143Z,100408.95
2022-08-03T00:52:57.080Z,100405.21
2022-08-03T00:55:25.594Z,100405.98
2022-08-03T00:57:54.146Z,100403.37
2022-08-03T01:00:24.758Z,100404.86
2022-08-03T01:02:53.589Z,100405.06
2022-08-03T01:05:22.025Z,100399.15
2022-08-03T01:08:11.918Z,100399.20
2022-08-03T01:10:49.292Z,100400.96
2022-08-03T01:14:01.620Z,100399.70
2022-08-03T01:16:36.541Z,100400.41
2022-08-03T01:19:13.155Z,100401.23
2022-08-03T01:22:05.833Z,100397.86
2022-08-03T01:25:05.356Z,100396.91
2022-08-03T01:28:01.187Z,100393.91
2022-08-03T01:30:32.542Z,100392.78
2022-08-03T01:33:12.765Z,100394.04
2022-08-03T01:35:47.671Z,100392.13
2022-08-03T01:38:22.185Z,100397.64
2022-08-03T01:40:53.924Z,100396.55
2022-08-03T01:44:27.004Z,100393.80
2022-08-03T01:46:17.734Z,100389.20
2022-08-03T01:48:47.431Z,100383.30
2022-08-03T01:51:18.414Z,100386.30
2022-08-03T01:53:48.232Z,100386.98
2022-08-03T01:56:17.883Z,100386.31
2022-08-03T01:58:48.556Z,100386.71
2022-08-03T02:01:17.684Z,100386.89
2022-08-03T02:04:00.102Z,100378.83
2022-08-03T02:07:01.572Z,100375.99
2022-08-03T02:09:22.017Z,100376.23
2022-08-03T02:11:52.209Z,100377.59
2022-08-03T02:14:21.278Z,100378.90
2022-08-03T02:16:50.411Z,100380.08
2022-08-03T02:19:19.485Z,100381.72
2022-08-03T02:21:56.409Z,100381.27
2022-08-03T02:24:30.693Z,100377.67
2022-08-03T02:26:59.889Z,100376.70
2022-08-03T02:29:39.652Z,100376.52
2022-08-03T02:32:14.238Z,100378.57
2022-08-03T02:34:46.039Z,100379.02
2022-08-03T02:37:18.078Z,100381.32
2022-08-03T02:39:47.961Z,100375.27
2022-08-03T02:42:18.950Z,100378.99
2022-08-03T02:44:51.062Z,100379.10
2022-08-03T02:47:21.386Z,100376.98
2022-08-03T02:49:52.301Z,100376.54
2022-08-03T02:52:23.088Z,100371.89
2022-08-03T02:54:54.895Z,100373.43
2022-08-03T02:57:23.708Z,100373.16
2022-08-03T02:59:53.375Z,100373.27
2022-08-03T03:02:22.936Z,100374.46
2022-08-03T03:05:50.625Z,100375.98
2022-08-03T03:07:52.165Z,100373.96
2022-08-03T03:10:22.883Z,100370.54
2022-08-03T03:12:55.146Z,100370.70
2022-08-03T03:15:25.787Z,100369.17
2022-08-03T03:17:54.573Z,100369.92
2022-08-03T03:20:29.420Z,100367.33
2022-08-03T03:23:02.057Z,100368.51
2022-08-03T03:25:32.184Z,100367.66
2022-08-03T03:28:01.355Z,100370.98
2022-08-03T03:30:30.299Z,100368.96
2022-08-03T03:32:59.359Z,100365.75
2022-08-03T03:35:27.838Z,100367.15
2022-08-03T03:37:56.615Z,100366.81
2022-08-03T03:40:24.900Z,100369.45
2022-08-03T03:42:52.675Z,100366.46
2022-08-03T03:45:22.283Z,100367.42
2022-08-03T03:47:50.186Z,100371.97
2022-08-03T03:50:18.829Z,100372.25
2022-08-03T03:52:46.575Z,100375.37
2022-08-03T03:55:18.320Z,100377.81
2022-08-03T03:57:46.730Z,100382.14
2022-08-03T04:00:16.486Z,100384.21
2022-08-03T04:02:45.321Z,100386.89
2022-08-03T04:05:29.568Z,100391.10
2022-08-03T04:08:22.454Z,100392.63
2022-08-03T04:11:16.862Z,100393.82
2022-08-03T04:13:51.733Z,100395.08
2022-08-03T04:16:22.632Z,100400.52
2022-08-03T04:18:57.542Z,100404.78
2022-08-03T04:21:26.386Z,100403.23
2022-08-03T04:23:59.256Z,100402.86
2022-08-03T04:26:31.897Z,100408.79
2022-08-03T04:29:00.915Z,100417.90
2022-08-03T04:31:30.292Z,100421.40
2022-08-03T04:33:59.365Z,100421.42
2022-08-03T04:36:31.751Z,100426.37
2022-08-03T04:39:08.170Z,100433.05
2022-08-03T04:42:04.447Z,100434.70
2022-08-03T04:44:28.382Z,100436.54
2022-08-03T04:46:57.858Z,100437.66
2022-08-03T04:49:27.117Z,100438.59
2022-08-03T04:51:54.914Z,100444.17
2022-08-03T04:54:22.514Z,100446.30
2022-08-03T04:56:50.121Z,100447.17
2022-08-03T04:59:17.981Z,100443.38
2022-08-03T05:01:45.837Z,100442.35
2022-08-03T05:04:14.461Z,100442.48
2022-08-03T05:06:48.354Z,100444.91
2022-08-03T05:09:52.888Z,100443.88
2022-08-03T05:12:11.146Z,100449.79
2022-08-03T05:14:39.181Z,100445.77
2022-08-03T05:17:08.021Z,100447.05
2022-08-03T05:19:35.758Z,100447.66
2022-08-03T05:22:03.482Z,100449.27
2022-08-03T05:24:31.145Z,100450.20
2022-08-03T05:26:58.849Z,100449.84
2022-08-03T05:29:26.420Z,100453.73
2022-08-03T05:31:54.005Z,100458.93
2022-08-03T05:34:21.623Z,100456.65
2022-08-03T05:36:49.204Z,100453.09
2022-08-03T05:39:16.879Z,100452.23
2022-08-03T05:41:44.554Z,100454.27
2022-08-03T05:44:12.126Z,100453.34
2022-08-03T05:46:39.955Z,100449.61
2022-08-03T05:49:07.629Z,100451.57
2022-08-03T05:51:35.417Z,100448.52
2022-08-03T05:54:03.359Z,100452.02
2022-08-03T05:56:31.085Z,100452.76
2022-08-03T05:59:04.223Z,100453.20
2022-08-03T06:01:44.122Z,100449.80
2022-08-03T06:04:11.940Z,100449.79
2022-08-03T06:06:39.536Z,100454.14
2022-08-03T06:09:07.136Z,100454.96
2022-08-03T06:11:35.317Z,100455.29
2022-08-03T06:14:03.617Z,100456.29
2022-08-03T06:16:31.483Z,100458.63
2022-08-03T06:18:59.148Z,100461.17
2022-08-03T06:21:27.186Z,100461.35
2022-08-03T06:23:55.715Z,100463.98
2022-08-03T06:26:27.842Z,100469.76
2022-08-03T06:28:56.061Z,100468.39
2022-08-03T06:31:32.849Z,100467.90
2022-08-03T06:34:33.937Z,100469.04
2022-08-03T06:36:58.503Z,100470.42
2022-08-03T06:39:30.132Z,100469.44
2022-08-03T06:41:58.108Z,100470.02
2022-08-03T06:44:26.151Z,100464.87
2022-08-03T06:46:53.789Z,100472.63
2022-08-03T06:49:21.499Z,100471.30
2022-08-03T06:52:04.118Z,100473.33
2022-08-03T06:54:34.654Z,100472.14
2022-08-03T06:57:02.492Z,100469.33
2022-08-03T07:00:08.951Z,100468.01
2022-08-03T07:02:19.832Z,100468.80
2022-08-03T07:04:48.952Z,100465.25
2022-08-03T07:07:17.712Z,100466.48
2022-08-03T07:09:56.483Z,100468.82
2022-08-03T07:12:29.933Z,100467.80
2022-08-03T07:15:02.338Z,100466.73
2022-08-03T07:17:32.951Z,100470.58
2022-08-03T07:20:03.060Z,100468.52
2022-08-03T07:22:30.691Z,100470.59
2022-08-03T07:24:59.190Z,100471.66
2022-08-03T07:27:28.405Z,100471.20
2022-08-03T07:29:57.955Z,100474.23
2022-08-03T07:32:27.013Z,100471.54
2022-08-03T07:34:58.499Z,100473.82
2022-08-03T07:37:29.196Z,100473.77
2022-08-03T07:39:57.374Z,100472.72
2022-08-03T07:42:26.100Z,100476.09
2022-08-03T07:44:54.013Z,100473.48
2022-08-03T07:47:24.453Z,100469.83
2022-08-03T07:49:52.842Z,100474.20
2022-08-03T07:52:36.154Z,100470.84
2022-08-03T07:55:06.403Z,100471.01
2022-08-03T07:57:35.150Z,100473.35
2022-08-03T08:00:07.369Z,100470.49
2022-08-03T08:02:41.567Z,100473.52
2022-08-03T08:05:10.860Z,100476.84
2022-08-03T08:07:39.377Z,100478.54
2022-08-03T08:10:09.840Z,100477.92
2022-08-03T08:12:39.151Z,100479.45
2022-08-03T08:15:08.070Z,100478.44
2022-08-03T08:17:53.870Z,100480.69
2022-08-03T08:20:28.471Z,100480.30
2022-08-03T08:23:25.480Z,100478.93
2022-08-03T08:25:56.914Z,100481.05
2022-08-03T08:28:30.842Z,100481.91
2022-08-03T08:31:01.057Z,100481.52
2022-08-03T08:33:42.109Z,100478.84
2022-08-03T08:36:16.709Z,100480.98
2022-08-03T08:38:45.238Z,100478.92
2022-08-03T08:41:14.598Z,100473.23
2022-08-03T08:43:42.917Z,100469.40
2022-08-03T08:46:23.239Z,100474.55
2022-08-03T08:48:53.871Z,100469.15
2022-08-03T08:51:52.749Z,100471.88
2022-08-03T08:54:18.123Z,100468.55
2022-08-03T08:56:46.952Z,100471.08
2022-08-03T08:59:15.074Z,100470.64
2022-08-03T09:01:43.001Z,100474.64
2022-08-03T09:04:12.262Z,100467.02
2022-08-03T09:06:39.873Z,100468.89
2022-08-03T09:09:08.258Z,100462.48
2022-08-03T09:12:00.800Z,100464.39
2022-08-03T09:14:36.974Z,100461.43
2022-08-03T09:17:10.085Z,100459.36
2022-08-03T09:20:06.294Z,100459.70
2022-08-03T09:22:33.922Z,100460.20
2022-08-03T09:25:23.942Z,100461.08
2022-08-03T09:27:53.418Z,100454.95
2022-08-03T09:30:34.352Z,100455.11
2022-08-03T09:33:05.397Z,100459.77
2022-08-03T09:38:25.856Z,100452.92
2022-08-03T09:40:59.554Z,100453.32
2022-08-03T09:43:28.619Z,100452.02
2022-08-03T09:46:04.783Z,100452.05
2022-08-03T09:48:34.796Z,100453.28
2022-08-03T09:51:12.878Z,100452.95
2022-08-03T09:53:59.121Z,100450.04
2022-08-03T09:56:44.812Z,100449.88
2022-08-03T09:59:23.693Z,100451.23
2022-08-03T10:01:51.536Z,100452.91
2022-08-03T10:04:19.410Z,100447.76
2022-08-03T10:07:06.228Z,100446.39
2022-08-03T10:09:34.001Z,100446.48
2022-08-03T10:12:17.810Z,100441.03
2022-08-03T10:14:46.633Z,100438.97
2022-08-03T10:17:14.280Z,100439.19
2022-08-03T10:19:42.022Z,100437.17
2022-08-03T10:22:16.189Z,100433.36
2022-08-03T10:25:02.746Z,100432.08
2022-08-03T10:27:35.188Z,100431.65
2022-08-03T10:30:06.715Z,100430.27
2022-08-03T10:32:40.395Z,100425.73
2022-08-03T10:35:20.112Z,100424.30
2022-08-03T10:38:08.603Z,100428.65
2022-08-03T10:40:55.883Z,100425.66
2022-08-03T10:43:40.769Z,100420.91
2022-08-03T10:46:08.622Z,100420.17
2022-08-03T10:48:37.098Z,100421.61
2022-08-03T10:51:06.752Z,100420.33
2022-08-03T10:53:40.354Z,100423.70
2022-08-03T10:56:50.518Z,100419.18
2022-08-03T10:59:27.653Z,100412.64
2022-08-03T11:02:00.153Z,100406.97
2022-08-03T11:04:30.380Z,100406.98
2022-08-03T11:07:17.618Z,100406.36
2022-08-03T11:09:48.648Z,100404.33
2022-08-03T11:12:30.077Z,100405.90
2022-08-03T11:15:05.586Z,100406.84
2022-08-03T11:17:46.505Z,100402.34
2022-08-03T11:20:45.465Z,100402.77
2022-08-03T11:23:15.009Z,100395.71
2022-08-03T11:26:14.638Z,100397.36
2022-08-03T11:28:44.508Z,100398.57
2022-08-03T11:31:49.390Z,100399.90
2022-08-03T11:34:17.645Z,100409.70
2022-08-03T11:37:16.500Z,100410.63
2022-08-03T11:39:47.324Z,100406.35
2022-08-03T11:42:33.717Z,100402.38
2022-08-03T11:45:01.405Z,100400.83
2022-08-03T11:47:29.988Z,100403.77
2022-08-03T11:50:01.760Z,100405.16
2022-08-03T11:52:37.794Z,100398.64
2022-08-03T11:55:10.209Z,100401.04
2022-08-03T11:58:58.057Z,100396.71
2022-08-03T12:00:28.873Z,100389.45
2022-08-03T12:02:58.047Z,100388.83
2022-08-03T12:05:52.159Z,100382.65
2022-08-03T12:08:36.173Z,100379.95
2022-08-03T12:11:06.781Z,100377.05
2022-08-03T12:14:44.751Z,100373.58
2022-08-03T12:16:32.931Z,100377.17
2022-08-03T12:19:03.300Z,100379.17
2022-08-03T12:21:31.058Z,100380.05
2022-08-03T12:24:04.523Z,100377.38
2022-08-03T12:26:45.237Z,100378.83
2022-08-03T12:29:27.654Z,100376.55
2022-08-03T12:31:56.125Z,100371.09
2022-08-03T12:34:23.932Z,100367.45
2022-08-03T12:36:55.970Z,100366.36
2022-08-03T12:39:25.482Z,100363.89
2022-08-03T12:41:54.585Z,100357.80
2022-08-03T12:44:39.318Z,100361.01
2022-08-03T12:47:07.139Z,100355.98
2022-08-03T12:49:51.879Z,100350.75
2022-08-03T12:52:22.017Z,100351.31
2022-08-03T12:55:00.713Z,100348.59
2022-08-03T12:57:44.296Z,100350.44
2022-08-03T13:00:21.544Z,100350.48
2022-08-03T13:03:26.528Z,100346.68
2022-08-03T13:05:49.247Z,100337.73
2022-08-03T13:08:21.086Z,100332.70
2022-08-03T13:10:48.796Z,100335.48
2022-08-03T13:13:16.880Z,100335.23
2022-08-03T13:15:48.051Z,100330.32
2022-08-03T13:18:17.285Z,100331.10
2022-08-03T13:20:45.491Z,100328.75
2022-08-03T13:23:22.097Z,100321.39
2022-08-03T13:25:55.772Z,100320.83
2022-08-03T13:28:23.869Z,100316.84
2022-08-03T13:30:51.626Z,100316.27
2022-08-03T13:33:19.244Z,100316.13
2022-08-03T13:35:46.946Z,100315.48
2022-08-03T13:38:15.239Z,100303.49
2022-08-03T13:40:46.137Z,100305.69
2022-08-03T13:43:17.763Z,100307.48
2022-08-03T13:45:51.244Z,100305.74
2022-08-03T13:48:36.664Z,100305.20
2022-08-03T13:51:21.864Z,100297.71
2022-08-03T13:53:52.147Z,100301.58
2022-08-03T13:56:19.814Z,100303.44
2022-08-03T13:58:47.464Z,100307.99
2022-08-03T14:01:15.456Z,100302.31
2022-08-03T14:03:43.154Z,100296.49
2022-08-03T14:06:10.763Z,100294.39
2022-08-03T14:08:38.416Z,100292.38
2022-08-03T14:11:06.578Z,100292.30
2022-08-03T14:13:34.163Z,100293.98
2022-08-03T14:16:01.845Z,100292.88
2022-08-03T14:18:33.487Z,100295.58
2022-08-03T14:21:07.503Z,100286.54
2022-08-03T14:23:37.860Z,100283.18
2022-08-03T14:26:09.404Z,100282.80
2022-08-03T14:28:37.629Z,100281.14
2022-08-03T14:31:08.220Z,100283.08
2022-08-03T14:33:43.315Z,100276.83
2022-08-03T14:36:10.983Z,100275.19
2022-08-03T14:38:38.543Z,100272.54
2022-08-03T14:41:06.203Z,100274.46
2022-08-03T14:43:39.933Z,100267.89
2022-08-03T14:46:27.569Z,100266.06
2022-08-03T14:50:32.846Z,100262.89
2022-08-03T14:51:51.336Z,100265.14
2022-08-03T14:54:22.278Z,100264.90
2022-08-03T14:56:49.976Z,100264.88
2022-08-03T14:59:17.643Z,100262.85
2022-08-03T15:02:03.168Z,100262.74
2022-08-03T15:04:32.874Z,100260.66
2022-08-03T15:07:00.437Z,100262.29
2022-08-03T15:09:28.045Z,100264.48
2022-08-03T15:11:55.665Z,100265.23
2022-08-03T15:14:32.260Z,100264.48
2022-08-03T15:17:01.454Z,100265.31
2022-08-03T15:20:03.627Z,100262.95
2022-08-03T15:22:19.023Z,100264.87
2022-08-03T15:24:48.554Z,100258.73
2022-08-03T15:27:16.182Z,100261.66
2022-08-03T15:30:09.386Z,100255.50
2022-08-03T15:32:31.459Z,100261.66
2022-08-03T15:35:00.428Z,100263.64
2022-08-03T15:37:28.439Z,100259.48
2022-08-03T15:40:00.090Z,100258.06
2022-08-03T15:42:30.195Z,100255.46
2022-08-03T15:44:58.442Z,100252.91
2022-08-03T15:47:26.806Z,100254.46
2022-08-03T15:49:54.595Z,100255.21
2022-08-03T15:52:22.295Z,100254.30
2022-08-03T15:54:50.328Z,100249.59
2022-08-03T15:57:18.098Z,100247.45
2022-08-03T15:59:45.854Z,100243.45
2022-08-03T16:02:13.716Z,100243.34
2022-08-03T16:04:41.312Z,100241.64
2022-08-03T16:07:12.812Z,100240.41
2022-08-03T16:09:42.875Z,100234.67
2022-08-03T16:12:15.563Z,100235.08
2022-08-03T16:14:52.756Z,100233.18
2022-08-03T16:17:22.636Z,100233.48
2022-08-03T16:19:52.159Z,100236.95
2022-08-03T16:22:26.299Z,100235.29
2022-08-03T16:24:54.553Z,100237.20
2022-08-03T16:27:36.945Z,100235.55
2022-08-03T16:30:07.301Z,100231.76
2022-08-03T16:32:35.445Z,100233.83
2022-08-03T16:35:04.655Z,100236.32
2022-08-03T16:37:39.669Z,100236.54
2022-08-03T16:40:17.650Z,100234.02
2022-08-03T16:42:47.639Z,100233.42
2022-08-03T16:45:15.310Z,100240.21
2022-08-03T16:47:42.916Z,100236.90
2022-08-03T16:50:17.177Z,100239.41
2022-08-03T16:52:48.504Z,100243.35
2022-08-03T16:55:43.515Z,100239.85
2022-08-03T16:58:06.076Z,100240.20
2022-08-03T17:00:41.524Z,100240.00
2022-08-03T17:03:18.845Z,100239.05
2022-08-03T17:05:50.020Z,100239.89
2022-08-03T17:08:18.954Z,100245.55
2022-08-03T17:10:55.708Z,100247.82
2022-08-03T17:13:39.034Z,100249.69
2022-08-03T17:16:10.409Z,100247.70
2022-08-03T17:18:47.385Z,100249.55
2022-08-03T17:21:17.357Z,100246.39
2022-08-03T17:23:55.138Z,100244.22
2022-08-03T17:26:23.774Z,100250.66
2022-08-03T17:29:11.288Z,100249.70
2022-08-03T17:31:48.842Z,100259.41
2022-08-03T17:34:19.334Z,100258.21
2022-08-03T17:37:03.836Z,100254.98
2022-08-03T17:39:57.046Z,100260.23
2022-08-03T17:42:30.268Z,100260.71
2022-08-03T17:45:02.568Z,100264.20
2022-08-03T17:47:57.475Z,100267.15
2022-08-03T17:50:46.487Z,100270.79
2022-08-03T17:53:24.306Z,100270.83
2022-08-03T17:56:03.320Z,100278.02
2022-08-03T17:58:52.765Z,100279.23
2022-08-03T18:02:00.651Z,100283.90
2022-08-03T18:04:41.280Z,100281.56
2022-08-03T18:07:12.472Z,100285.14
2022-08-03T18:10:04.772Z,100280.02
2022-08-03T18:12:59.485Z,100281.79
2022-08-03T18:15:32.452Z,100282.06
2022-08-03T18:18:10.278Z,100282.10
2022-08-03T18:20:42.106Z,100287.08
2022-08-03T18:23:25.444Z,100288.13
2022-08-03T18:26:04.854Z,100292.05
2022-08-03T18:28:34.368Z,100292.08
2022-08-03T18:31:05.908Z,100290.30
2022-08-03T18:34:19.531Z,100290.76
2022-08-03T18:36:30.620Z,100293.48
2022-08-03T18:41:48.066Z,100301.21
2022-08-03T18:44:52.659Z,100301.60
2022-08-03T18:50:33.980Z,100306.48
2022-08-03T18:53:19.638Z,100308.27
2022-08-03T18:56:03.220Z,100309.67
2022-08-03T18:58:48.639Z,100307.63
2022-08-03T19:01:59.087Z,100307.92
2022-08-03T19:04:46.222Z,100311.45
2022-08-03T19:07:22.200Z,100310.19
2022-08-03T19:10:09.651Z,100306.80
2022-08-03T19:12:45.779Z,100311.97
2022-08-03T19:15:15.604Z,100314.46
2022-08-03T19:17:50.212Z,100312.96
2022-08-03T19:20:37.755Z,100316.36
2022-08-03T19:23:06.768Z,100312.50
2022-08-03T19:25:39.271Z,100315.35
2022-08-03T19:28:09.100Z,100311.63
2022-08-03T19:33:31.193Z,100316.64
2022-08-03T19:36:26.406Z,100319.75
2022-08-03T19:38:59.162Z,100318.65
2022-08-03T19:41:42.253Z,100317.83
2022-08-03T19:44:23.765Z,100321.86
2022-08-03T19:47:01.208Z,100319.77
2022-08-03T19:50:05.303Z,100323.23
2022-08-03T19:52:31.414Z,100330.10
2022-08-03T19:55:03.884Z,100332.14
2022-08-03T19:57:33.361Z,100337.14
2022-08-03T20:00:03.396Z,100337.16
2022-08-03T20:02:33.307Z,100337.69
2022-08-03T20:05:01.288Z,100338.68
2022-08-03T20:07:32.719Z,100336.48
2022-08-03T20:10:04.188Z,100340.60
2022-08-03T20:12:39.142Z,100342.80
2022-08-03T20:15:09.066Z,100343.78
2022-08-03T20:17:54.515Z,100342.17
2022-08-03T20:20:30.034Z,100345.77
2022-08-03T20:23:00.486Z,100345.57
2022-08-03T20:25:38.264Z,100347.61
2022-08-03T20:28:15.111Z,100353.29
2022-08-03T20:30:47.356Z,100353.61
2022-08-03T20:33:18.630Z,100354.48
2022-08-03T20:35:49.620Z,100353.66
2022-08-03T20:38:18.928Z,100349.73
2022-08-03T20:40:48.371Z,100351.54
2022-08-03T20:43:16.949Z,100354.27
2022-08-03T20:46:00.390Z,100355.10
2022-08-03T20:48:37.243Z,100356.84
2022-08-03T20:51:15.719Z,100358.70
2022-08-03T20:54:00.395Z,100357.38
2022-08-03T20:56:33.582Z,100356.30
2022-08-03T20:59:06.999Z,100358.31
2022-08-03T21:01:44.343Z,100357.49
2022-08-03T21:04:13.581Z,100359.60
2022-08-03T21:06:53.142Z,100358.33
2022-08-03T21:09:39.852Z,100356.89
2022-08-03T21:12:15.489Z,100361.23
2022-08-03T21:12:58.867Z,100300.15
2022-08-03T21:13:00.464Z,100306.73
2022-08-03T21:13:09.879Z,100316.45
2022-08-03T21:15:04.415Z,100362.33
2022-08-03T21:17:42.062Z,100366.94
2022-08-03T21:20:12.058Z,100364.63
2022-08-03T21:22:45.142Z,100367.88
2022-08-03T21:25:16.012Z,100373.02
2022-08-03T21:27:43.827Z,100370.56
2022-08-03T21:30:12.278Z,100374.45
2022-08-03T21:32:42.971Z,100368.77
2022-08-03T21:35:12.355Z,100369.05
2022-08-03T21:37:41.659Z,100368.73
2022-08-03T21:40:12.325Z,100368.04
2022-08-03T21:42:41.360Z,100372.80
2022-08-03T21:45:16.924Z,100371.18
2022-08-03T21:47:46.851Z,100372.58
2022-08-03T21:50:15.542Z,100367.31
2022-08-03T21:52:48.876Z,100370.37
2022-08-03T21:55:20.527Z,100370.67
2022-08-03T21:57:53.024Z,100370.10
2022-08-03T22:00:23.279Z,100370.85
2022-08-03T22:02:56.045Z,100369.50
2022-08-03T22:05:29.031Z,100376.48
2022-08-03T22:08:15.370Z,100374.73
2022-08-03T22:10:43.746Z,100376.52
2022-08-03T22:13:13.896Z,100378.29
2022-08-03T22:15:42.085Z,100380.80
2022-08-03T22:18:12.722Z,100381.35
2022-08-03T22:20:40.870Z,100382.09
2022-08-03T22:23:09.745Z,100380.65
2022-08-03T22:25:39.666Z,100379.52
2022-08-03T22:28:10.541Z,100380.59
2022-08-03T22:30:39.649Z,100380.00
2022-08-03T22:33:11.643Z,100377.45
2022-08-03T22:35:47.458Z,100377.02
2022-08-03T22:38:18.003Z,100376.50
2022-08-03T22:40:48.997Z,100377.70
2022-08-03T22:43:17.340Z,100381.14
2022-08-03T22:46:10.477Z,100383.86
2022-08-03T22:48:40.919Z,100387.08
2022-08-03T22:51:10.095Z,100382.80
2022-08-03T22:53:38.976Z,100380.30
2022-08-03T22:56:07.645Z,100384.34
2022-08-03T22:58:35.215Z,100382.40
2022-08-03T23:01:11.476Z,100380.39
2022-08-03T23:04:01.248Z,100380.48
2022-08-03T23:06:34.855Z,100385.93
2022-08-03T23:09:08.565Z,100385.73
2022-08-03T23:11:45.239Z,100384.99
2022-08-03T23:14:18.372Z,100386.52
2022-08-03T23:16:47.683Z,100385.60
2022-08-03T23:19:25.028Z,100385.33
2022-08-03T23:22:02.469Z,100385.23
2022-08-03T23:24:36.363Z,100387.58
2022-08-03T23:27:06.930Z,100383.61
2022-08-03T23:29:36.759Z,100386.76
2022-08-03T23:32:05.791Z,100388.71
2022-08-03T23:34:49.413Z,100391.60
2022-08-03T23:37:20.169Z,100389.35
2022-08-03T23:39:48.883Z,100394.02
2022-08-03T23:42:18.661Z,100389.98
2022-08-03T23:44:46.913Z,100385.96
2022-08-03T23:47:14.635Z,100390.67
2022-08-03T23:49:42.446Z,100392.79
2022-08-03T23:52:25.312Z,100392.80
2022-08-03T23:55:09.026Z,100396.77
2022-08-03T23:57:45.612Z,100397.83
